createdAt,value
2023-05-15T00:00:13.044Z,12.40
2023-05-15T00:02:39.275Z,12.39
2023-05-15T00:05:08.233Z,12.47
2023-05-15T00:07:35.759Z,12.38
2023-05-15T00:10:02.108Z,12.47
2023-05-15T00:12:28.284Z,12.49
2023-05-15T00:14:54.206Z,12.52
2023-05-15T00:17:20.094Z,12.46
2023-05-15T00:19:46.140Z,12.52
2023-05-15T00:22:12.034Z,12.34
2023-05-15T00:24:37.809Z,12.31
2023-05-15T00:27:03.863Z,12.37
2023-05-15T00:29:29.783Z,12.36
2023-05-15T00:31:55.832Z,12.16
2023-05-15T00:34:22.097Z,12.15
2023-05-15T00:36:48.130Z,12.15
2023-05-15T00:39:13.961Z,12.19
2023-05-15T00:41:41.160Z,12.17
2023-05-15T00:44:08.949Z,12.21
2023-05-15T00:46:35.673Z,12.14
2023-05-15T00:49:04.126Z,12.14
2023-05-15T00:51:30.402Z,12.06
2023-05-15T00:53:58.107Z,12.17
2023-05-15T00:56:24.760Z,12.07
2023-05-15T00:58:53.063Z,12.23
2023-05-15T01:01:19.216Z,12.42
2023-05-15T01:03:45.331Z,12.54
2023-05-15T01:06:11.711Z,12.62
2023-05-15T01:08:42.952Z,12.64
2023-05-15T01:11:10.952Z,12.72
2023-05-15T01:13:36.805Z,12.82
2023-05-15T01:16:03.334Z,12.76
2023-05-15T01:18:31.729Z,12.80
2023-05-15T01:21:19.844Z,12.85
2023-05-15T01:24:08.288Z,12.83
2023-05-15T01:26:55.641Z,12.80
2023-05-15T01:29:31.859Z,12.81
2023-05-15T01:32:06.184Z,12.87
2023-05-15T01:34:45.260Z,12.83
2023-05-15T01:37:13.829Z,12.79
2023-05-15T01:39:42.211Z,12.59
2023-05-15T01:42:10.116Z,12.46
2023-05-15T01:44:39.903Z,12.15
2023-05-15T01:47:17.213Z,12.13
2023-05-15T01:49:44.849Z,12.10
2023-05-15T01:52:35.913Z,12.09
2023-05-15T01:55:03.664Z,12.28
2023-05-15T01:57:30.968Z,12.39
2023-05-15T01:59:58.040Z,12.50
2023-05-15T02:02:26.058Z,12.31
2023-05-15T02:04:52.486Z,12.39
2023-05-15T02:07:19.565Z,12.40
2023-05-15T02:09:46.899Z,12.28
2023-05-15T02:12:13.104Z,12.24
2023-05-15T02:14:40.576Z,12.32
2023-05-15T02:17:07.028Z,12.38
2023-05-15T02:19:32.879Z,12.40
2023-05-15T02:21:58.937Z,12.37
2023-05-15T02:24:24.814Z,12.07
2023-05-15T02:27:01.827Z,12.05
2023-05-15T02:29:27.562Z,11.85
2023-05-15T02:31:53.422Z,11.95
2023-05-15T02:34:27.568Z,12.03
2023-05-15T02:36:56.577Z,12.18
2023-05-15T02:39:24.346Z,12.33
2023-05-15T02:41:51.636Z,12.44
2023-05-15T02:44:17.800Z,12.50
2023-05-15T02:46:43.887Z,12.53
2023-05-15T02:49:10.830Z,12.50
2023-05-15T02:51:36.800Z,12.23
2023-05-15T02:54:03.406Z,12.13
2023-05-15T02:56:29.163Z,12.01
2023-05-15T02:58:55.183Z,12.05
2023-05-15T03:01:21.257Z,12.17
2023-05-15T03:03:47.352Z,12.30
2023-05-15T03:06:13.192Z,12.22
2023-05-15T03:08:38.997Z,12.21
2023-05-15T03:11:05.546Z,12.18
2023-05-15T03:13:31.346Z,11.81
2023-05-15T03:15:57.289Z,11.76
2023-05-15T03:18:23.038Z,11.81
2023-05-15T03:20:51.935Z,11.76
2023-05-15T03:23:18.148Z,11.62
2023-05-15T03:25:44.047Z,11.69
2023-05-15T03:28:10.777Z,11.80
2023-05-15T03:30:36.893Z,11.86
2023-05-15T03:33:03.261Z,11.70
2023-05-15T03:35:31.427Z,11.75
2023-05-15T03:37:57.446Z,11.78
2023-05-15T03:40:23.254Z,11.81
2023-05-15T03:42:52.636Z,11.74
2023-05-15T03:45:19.411Z,11.86
2023-05-15T03:47:45.337Z,11.70
2023-05-15T03:50:11.288Z,11.57
2023-05-15T03:52:37.469Z,11.66
2023-05-15T03:55:04.519Z,11.65
2023-05-15T03:57:34.811Z,11.64
2023-05-15T04:00:03.272Z,11.62
2023-05-15T04:02:29.091Z,11.62
2023-05-15T04:04:54.947Z,11.71
2023-05-15T04:07:20.697Z,11.72
2023-05-15T04:09:46.529Z,11.83
2023-05-15T04:12:12.284Z,11.72
2023-05-15T04:14:38.113Z,11.86
2023-05-15T04:17:03.995Z,11.81
2023-05-15T04:19:29.824Z,11.83
2023-05-15T04:21:55.900Z,11.84
2023-05-15T04:24:21.669Z,11.97
2023-05-15T04:26:47.729Z,11.59
2023-05-15T04:29:13.556Z,11.14
2023-05-15T04:31:39.567Z,11.09
2023-05-15T04:34:05.479Z,11.34
2023-05-15T04:36:32.861Z,11.37
2023-05-15T04:38:58.764Z,11.45
2023-05-15T04:41:24.775Z,11.45
2023-05-15T04:43:51.067Z,11.34
2023-05-15T04:46:16.843Z,11.51
2023-05-15T04:48:42.650Z,11.49
2023-05-15T04:51:08.489Z,11.56
2023-05-15T04:53:34.305Z,11.63
2023-05-15T04:56:00.159Z,11.63
2023-05-15T04:58:25.958Z,11.59
2023-05-15T05:00:51.789Z,11.65
2023-05-15T05:03:17.717Z,11.46
2023-05-15T05:05:43.853Z,11.42
2023-05-15T05:08:09.677Z,11.56
2023-05-15T05:10:35.592Z,11.45
2023-05-15T05:13:01.448Z,11.37
2023-05-15T05:15:27.357Z,11.28
2023-05-15T05:17:53.493Z,11.32
2023-05-15T05:20:19.674Z,11.49
2023-05-15T05:22:45.524Z,11.62
2023-05-15T05:25:11.377Z,11.41
2023-05-15T05:27:37.189Z,11.31
2023-05-15T05:30:03.214Z,11.27
2023-05-15T05:32:29.150Z,11.31
2023-05-15T05:34:55.006Z,11.25
2023-05-15T05:37:20.855Z,11.36
2023-05-15T05:39:46.734Z,11.43
2023-05-15T05:42:12.565Z,11.49
2023-05-15T05:44:38.366Z,11.46
2023-05-15T05:47:04.256Z,11.52
2023-05-15T05:49:30.076Z,11.29
2023-05-15T05:51:55.922Z,11.43
2023-05-15T05:54:21.725Z,11.38
2023-05-15T05:56:47.629Z,11.32
2023-05-15T05:59:13.482Z,11.62
2023-05-15T06:01:39.379Z,11.53
2023-05-15T06:04:05.237Z,11.53
2023-05-15T06:06:34.667Z,11.45
2023-05-15T06:09:00.544Z,11.46
2023-05-15T06:11:26.410Z,11.38
2023-05-15T06:13:52.346Z,11.23
2023-05-15T06:16:18.193Z,10.94
2023-05-15T06:18:44.135Z,11.13
2023-05-15T06:21:10.301Z,11.33
2023-05-15T06:23:36.606Z,11.25
2023-05-15T06:26:03.714Z,11.23
2023-05-15T06:28:29.487Z,11.21
2023-05-15T06:30:55.334Z,11.29
2023-05-15T06:33:21.462Z,11.39
2023-05-15T06:35:47.323Z,11.25
2023-05-15T06:38:13.075Z,11.38
2023-05-15T06:40:38.897Z,11.55
2023-05-15T06:43:04.814Z,11.69
2023-05-15T06:45:30.726Z,11.51
2023-05-15T06:47:58.538Z,11.73
2023-05-15T06:50:25.841Z,12.06
2023-05-15T06:52:51.599Z,12.01
2023-05-15T06:55:17.463Z,11.99
2023-05-15T06:57:43.250Z,12.01
2023-05-15T07:00:09.543Z,11.72
2023-05-15T07:02:35.351Z,11.49
2023-05-15T07:05:01.239Z,11.66
2023-05-15T07:07:27.104Z,11.85
2023-05-15T07:09:52.922Z,12.07
2023-05-15T07:12:18.774Z,12.35
2023-05-15T07:14:44.701Z,12.26
2023-05-15T07:17:10.523Z,12.42
2023-05-15T07:19:36.324Z,12.20
2023-05-15T07:22:05.184Z,12.35
2023-05-15T07:24:30.977Z,12.26
2023-05-15T07:26:58.520Z,12.48
2023-05-15T07:29:24.979Z,12.51
2023-05-15T07:31:50.913Z,12.50
2023-05-15T07:34:16.837Z,12.46
2023-05-15T07:36:42.688Z,12.60
2023-05-15T07:39:08.567Z,12.38
2023-05-15T07:41:34.379Z,12.51
2023-05-15T07:44:00.137Z,12.90
2023-05-15T07:46:26.482Z,12.93
2023-05-15T07:48:52.320Z,13.01
2023-05-15T07:51:18.104Z,12.94
2023-05-15T07:53:43.855Z,12.86
2023-05-15T07:56:09.979Z,13.09
2023-05-15T07:58:37.593Z,13.10
2023-05-15T08:01:04.070Z,13.31
2023-05-15T08:03:30.011Z,13.30
2023-05-15T08:05:55.833Z,13.38
2023-05-15T08:08:21.698Z,13.49
2023-05-15T08:10:47.879Z,13.35
2023-05-15T08:13:13.703Z,13.35
2023-05-15T08:15:39.719Z,13.29
2023-05-15T08:18:09.419Z,13.33
2023-05-15T08:20:35.649Z,13.41
2023-05-15T08:23:01.393Z,13.39
2023-05-15T08:25:27.362Z,13.65
2023-05-15T08:27:53.265Z,13.69
2023-05-15T08:30:19.071Z,13.61
2023-05-15T08:32:45.589Z,13.69
2023-05-15T08:35:11.480Z,13.90
2023-05-15T08:37:37.387Z,14.17
2023-05-15T08:40:09.529Z,14.12
2023-05-15T08:42:44.068Z,14.15
2023-05-15T08:45:11.417Z,14.33
2023-05-15T08:47:39.653Z,14.56
2023-05-15T08:50:13.507Z,14.07
2023-05-15T08:52:44.951Z,14.27
2023-05-15T08:55:11.107Z,14.13
2023-05-15T08:57:38.110Z,14.12
2023-05-15T09:00:09.015Z,14.23
2023-05-15T09:02:36.648Z,14.30
2023-05-15T09:05:03.121Z,14.43
2023-05-15T09:07:30.498Z,14.43
2023-05-15T09:09:57.494Z,14.45
2023-05-15T09:12:25.551Z,14.52
2023-05-15T09:14:51.858Z,14.62
2023-05-15T09:17:17.621Z,14.69
2023-05-15T09:19:43.626Z,14.89
2023-05-15T09:22:25.008Z,15.20
2023-05-15T09:24:57.375Z,15.43
2023-05-15T09:27:23.554Z,15.30
2023-05-15T09:29:53.610Z,14.95
2023-05-15T09:32:19.958Z,15.05
2023-05-15T09:34:45.987Z,15.20
2023-05-15T09:37:28.577Z,15.09
2023-05-15T09:39:54.388Z,15.38
2023-05-15T09:42:20.290Z,15.59
2023-05-15T09:44:46.081Z,15.39
2023-05-15T09:47:13.667Z,15.23
2023-05-15T09:49:43.802Z,15.66
2023-05-15T09:52:10.155Z,15.77
2023-05-15T09:54:37.100Z,16.05
2023-05-15T09:57:10.788Z,15.87
2023-05-15T09:59:43.349Z,15.77
2023-05-15T10:02:13.341Z,16.07
2023-05-15T10:04:39.189Z,15.97
2023-05-15T10:07:07.418Z,16.06
2023-05-15T10:09:33.232Z,16.07
2023-05-15T10:11:59.279Z,16.26
2023-05-15T10:14:25.938Z,16.50
2023-05-15T10:16:52.417Z,16.54
2023-05-15T10:19:21.386Z,16.53
2023-05-15T10:21:47.905Z,16.66
2023-05-15T10:24:15.781Z,16.88
2023-05-15T10:26:42.688Z,17.08
2023-05-15T10:29:13.912Z,17.80
2023-05-15T10:31:40.672Z,18.00
2023-05-15T10:34:07.960Z,18.43
2023-05-15T10:36:36.052Z,18.78
2023-05-15T10:39:06.402Z,18.84
2023-05-15T10:41:37.271Z,18.76
2023-05-15T10:44:03.178Z,18.81
2023-05-15T10:46:32.695Z,18.76
2023-05-15T10:48:59.870Z,18.46
2023-05-15T10:51:26.914Z,18.14
2023-05-15T10:53:53.534Z,18.17
2023-05-15T10:56:19.721Z,18.32
2023-05-15T10:58:50.011Z,18.20
2023-05-15T11:01:27.162Z,18.19
2023-05-15T11:04:03.970Z,18.27
2023-05-15T11:06:33.062Z,18.17
2023-05-15T11:09:27.753Z,18.96
2023-05-15T11:11:56.147Z,18.80
2023-05-15T11:14:26.558Z,18.58
2023-05-15T11:16:52.372Z,18.89
2023-05-15T11:19:27.881Z,19.23
2023-05-15T11:22:05.884Z,19.14
2023-05-15T11:24:46.288Z,19.00
2023-05-15T11:27:16.077Z,19.40
2023-05-15T11:30:06.959Z,19.50
2023-05-15T11:32:48.396Z,19.33
2023-05-15T11:35:32.537Z,20.31
2023-05-15T11:38:03.939Z,20.74
2023-05-15T11:40:44.415Z,20.53
2023-05-15T11:43:36.532Z,20.16
2023-05-15T11:46:02.304Z,19.79
2023-05-15T11:48:34.760Z,19.01
2023-05-15T11:51:01.562Z,18.43
2023-05-15T11:53:29.646Z,18.18
2023-05-15T11:55:55.673Z,19.01
2023-05-15T11:58:23.660Z,19.73
2023-05-15T12:00:51.304Z,20.06
2023-05-15T12:03:23.390Z,19.90
2023-05-15T12:05:59.212Z,19.61
2023-05-15T12:08:36.908Z,19.15
2023-05-15T12:11:03.874Z,18.41
2023-05-15T12:13:30.872Z,17.99
2023-05-15T12:15:57.190Z,18.04
2023-05-15T12:18:25.317Z,18.02
2023-05-15T12:20:52.444Z,17.50
2023-05-15T12:23:21.863Z,17.39
2023-05-15T12:25:50.472Z,17.35
2023-05-15T12:28:16.765Z,17.59
2023-05-15T12:30:43.034Z,17.64
2023-05-15T12:33:10.070Z,17.58
2023-05-15T12:35:41.493Z,17.72
2023-05-15T12:38:07.596Z,17.56
2023-05-15T12:40:34.625Z,17.67
2023-05-15T12:43:05.668Z,17.69
2023-05-15T12:45:32.524Z,17.68
2023-05-15T12:47:58.385Z,18.13
2023-05-15T12:50:25.462Z,18.94
2023-05-15T12:52:52.729Z,20.09
2023-05-15T12:55:26.097Z,19.86
2023-05-15T12:57:53.597Z,19.31
2023-05-15T13:00:21.827Z,18.57
2023-05-15T13:02:53.026Z,18.53
2023-05-15T13:05:19.418Z,18.96
2023-05-15T13:07:45.331Z,19.11
2023-05-15T13:10:11.969Z,19.87
2023-05-15T13:12:39.699Z,20.13
2023-05-15T13:15:06.393Z,20.44
2023-05-15T13:17:36.096Z,20.67
2023-05-15T13:20:01.879Z,21.04
2023-05-15T13:22:28.129Z,21.84
2023-05-15T13:24:55.945Z,21.82
2023-05-15T13:27:21.746Z,22.17
2023-05-15T13:29:47.504Z,22.03
2023-05-15T13:32:13.710Z,20.86
2023-05-15T13:34:39.486Z,20.22
2023-05-15T13:37:05.382Z,20.70
2023-05-15T13:39:31.123Z,20.41
2023-05-15T13:41:57.762Z,20.43
2023-05-15T13:44:23.545Z,20.14
2023-05-15T13:46:49.365Z,19.37
2023-05-15T13:49:15.120Z,19.04
2023-05-15T13:51:40.909Z,19.00
2023-05-15T13:54:06.700Z,19.14
2023-05-15T13:56:32.521Z,19.37
2023-05-15T13:58:58.380Z,19.85
2023-05-15T14:01:24.310Z,20.29
2023-05-15T14:03:50.194Z,20.25
2023-05-15T14:06:15.991Z,20.60
2023-05-15T14:08:41.845Z,20.60
2023-05-15T14:11:08.049Z,20.33
2023-05-15T14:13:33.959Z,20.42
2023-05-15T14:15:59.877Z,21.06
2023-05-15T14:18:25.738Z,20.93
2023-05-15T14:20:51.781Z,20.81
2023-05-15T14:23:18.476Z,20.47
2023-05-15T14:25:44.298Z,19.89
2023-05-15T14:28:10.644Z,19.89
2023-05-15T14:30:36.906Z,19.79
2023-05-15T14:33:02.800Z,19.77
2023-05-15T14:35:28.684Z,19.85
2023-05-15T14:37:54.487Z,19.43
2023-05-15T14:40:20.351Z,19.85
2023-05-15T14:42:46.152Z,19.70
2023-05-15T14:45:11.996Z,19.37
2023-05-15T14:47:38.718Z,19.35
2023-05-15T14:50:05.012Z,19.61
2023-05-15T14:52:30.858Z,20.16
2023-05-15T14:55:08.649Z,20.28
2023-05-15T14:57:35.468Z,20.25
2023-05-15T15:00:01.504Z,20.09
2023-05-15T15:02:27.411Z,20.08
2023-05-15T15:04:53.404Z,19.99
2023-05-15T15:07:19.996Z,19.80
2023-05-15T15:09:45.862Z,19.70
2023-05-15T15:12:11.661Z,19.45
2023-05-15T15:14:37.524Z,19.06
2023-05-15T15:17:03.453Z,19.00
2023-05-15T15:19:29.324Z,19.15
2023-05-15T15:21:55.198Z,19.76
2023-05-15T15:24:21.000Z,19.80
2023-05-15T15:26:46.862Z,19.50
2023-05-15T15:29:12.688Z,19.12
2023-05-15T15:31:38.595Z,18.73
2023-05-15T15:34:05.739Z,19.21
2023-05-15T15:36:32.133Z,19.47
2023-05-15T15:38:58.044Z,19.37
2023-05-15T15:41:23.941Z,19.57
2023-05-15T15:43:49.924Z,19.15
2023-05-15T15:46:15.812Z,19.41
2023-05-15T15:48:41.701Z,19.71
2023-05-15T15:51:07.567Z,19.78
2023-05-15T15:53:34.250Z,19.56
2023-05-15T15:56:00.726Z,19.28
2023-05-15T15:58:26.505Z,18.41
2023-05-15T16:00:52.392Z,18.18
2023-05-15T16:03:18.708Z,17.84
2023-05-15T16:05:44.615Z,17.41
2023-05-15T16:08:10.394Z,17.55
2023-05-15T16:10:36.376Z,17.43
2023-05-15T16:13:02.207Z,17.34
2023-05-15T16:15:28.056Z,17.35
2023-05-15T16:17:55.047Z,17.26
2023-05-15T16:20:21.567Z,17.02
2023-05-15T16:22:47.331Z,16.78
2023-05-15T16:25:13.357Z,16.66
2023-05-15T16:27:39.137Z,16.38
2023-05-15T16:30:05.534Z,16.51
2023-05-15T16:32:33.062Z,16.93
2023-05-15T16:34:58.935Z,17.59
2023-05-15T16:37:24.871Z,17.64
2023-05-15T16:39:51.204Z,17.77
2023-05-15T16:42:17.089Z,18.03
2023-05-15T16:44:42.901Z,17.84
2023-05-15T16:47:08.744Z,17.52
2023-05-15T16:49:34.591Z,17.16
2023-05-15T16:52:00.425Z,16.85
2023-05-15T16:54:26.188Z,16.71
2023-05-15T16:56:52.043Z,16.54
2023-05-15T16:59:17.976Z,16.35
2023-05-15T17:01:43.823Z,16.33
2023-05-15T17:04:09.765Z,16.14
2023-05-15T17:06:35.677Z,16.33
2023-05-15T17:09:01.652Z,16.42
2023-05-15T17:11:27.461Z,16.53
2023-05-15T17:13:53.297Z,16.43
2023-05-15T17:16:19.126Z,16.34
2023-05-15T17:18:45.015Z,16.31
2023-05-15T17:21:10.841Z,16.16
2023-05-15T17:23:36.932Z,15.98
2023-05-15T17:26:03.525Z,15.87
2023-05-15T17:28:29.374Z,15.73
2023-05-15T17:30:55.188Z,15.88
2023-05-15T17:33:21.014Z,15.87
2023-05-15T17:35:46.863Z,15.89
2023-05-15T17:38:12.801Z,15.84
2023-05-15T17:40:38.670Z,15.76
2023-05-15T17:43:04.505Z,15.71
2023-05-15T17:45:30.330Z,15.83
2023-05-15T17:48:01.985Z,15.75
2023-05-15T17:50:27.876Z,15.74
2023-05-15T17:52:53.681Z,15.72
2023-05-15T17:55:19.664Z,15.81
2023-05-15T17:57:45.449Z,15.83
2023-05-15T18:00:11.817Z,15.63
2023-05-15T18:02:37.692Z,15.38
2023-05-15T18:05:03.726Z,15.31
2023-05-15T18:07:29.676Z,15.08
2023-05-15T18:09:55.482Z,15.13
2023-05-15T18:12:21.455Z,14.97
2023-05-15T18:14:47.274Z,14.87
2023-05-15T18:17:13.121Z,14.77
2023-05-15T18:19:39.368Z,14.80
2023-05-15T18:22:05.254Z,14.92
2023-05-15T18:24:33.500Z,14.75
2023-05-15T18:26:59.305Z,14.71
2023-05-15T18:29:25.332Z,14.61
2023-05-15T18:31:51.361Z,14.54
2023-05-15T18:34:17.314Z,14.55
2023-05-15T18:36:43.383Z,14.48
2023-05-15T18:39:09.266Z,14.23
2023-05-15T18:41:38.241Z,14.29
2023-05-15T18:44:04.237Z,14.17
2023-05-15T18:46:31.032Z,14.20
2023-05-15T18:48:56.934Z,14.29
2023-05-15T18:51:23.376Z,14.22
2023-05-15T18:53:49.828Z,13.93
2023-05-15T18:56:15.647Z,13.97
2023-05-15T18:58:41.580Z,13.88
2023-05-15T19:01:07.595Z,13.83
2023-05-15T19:03:36.681Z,13.62
2023-05-15T19:06:02.685Z,13.61
2023-05-15T19:08:28.600Z,13.61
2023-05-15T19:10:54.443Z,13.59
2023-05-15T19:13:20.422Z,13.57
2023-05-15T19:15:51.040Z,13.72
2023-05-15T19:18:17.562Z,13.43
2023-05-15T19:20:43.771Z,13.53
2023-05-15T19:23:09.862Z,13.26
2023-05-15T19:25:35.927Z,13.25
2023-05-15T19:28:01.889Z,13.15
2023-05-15T19:30:27.888Z,13.16
2023-05-15T19:32:53.894Z,13.06
2023-05-15T19:35:19.938Z,13.01
2023-05-15T19:37:45.965Z,13.04
2023-05-15T19:40:12.343Z,13.00
2023-05-15T19:42:38.151Z,12.83
2023-05-15T19:45:04.509Z,12.73
2023-05-15T19:47:30.340Z,12.63
2023-05-15T19:49:56.266Z,12.70
2023-05-15T19:52:22.199Z,12.69
2023-05-15T19:54:48.290Z,12.78
2023-05-15T19:57:14.713Z,12.76
2023-05-15T19:59:40.709Z,12.74
2023-05-15T20:02:09.725Z,12.74
2023-05-15T20:04:36.264Z,12.86
2023-05-15T20:07:03.462Z,12.84
2023-05-15T20:09:29.677Z,12.85
2023-05-15T20:11:55.731Z,12.73
2023-05-15T20:14:21.621Z,12.73
2023-05-15T20:16:47.487Z,12.77
2023-05-15T20:19:14.005Z,12.73
2023-05-15T20:21:39.903Z,12.75
2023-05-15T20:24:06.217Z,12.80
2023-05-15T20:26:32.090Z,12.81
2023-05-15T20:28:57.974Z,12.62
2023-05-15T20:31:23.825Z,12.77
2023-05-15T20:33:50.093Z,12.58
2023-05-15T20:36:16.062Z,12.43
2023-05-15T20:38:43.393Z,12.55
2023-05-15T20:41:09.171Z,12.52
2023-05-15T20:43:35.002Z,12.62
2023-05-15T20:46:00.866Z,12.57
2023-05-15T20:48:26.781Z,12.55
2023-05-15T20:50:53.087Z,12.45
2023-05-15T20:53:18.918Z,12.42
2023-05-15T20:55:45.073Z,12.35
2023-05-15T20:58:10.929Z,12.34
2023-05-15T21:00:36.898Z,12.44
2023-05-15T21:03:02.747Z,12.46
2023-05-15T21:05:28.653Z,12.53
2023-05-15T21:07:54.521Z,12.28
2023-05-15T21:10:20.319Z,12.33
2023-05-15T21:12:46.214Z,12.33
2023-05-15T21:15:12.132Z,12.33
2023-05-15T21:17:38.485Z,12.31
2023-05-15T21:20:04.916Z,12.11
2023-05-15T21:22:30.758Z,12.27
2023-05-15T21:24:57.013Z,12.31
2023-05-15T21:27:23.006Z,12.17
2023-05-15T21:29:48.801Z,12.05
2023-05-15T21:32:14.717Z,12.23
2023-05-15T21:34:40.719Z,12.32
2023-05-15T21:37:06.534Z,12.22
2023-05-15T21:39:32.447Z,12.30
2023-05-15T21:41:58.362Z,12.39
2023-05-15T21:44:24.177Z,12.31
2023-05-15T21:46:50.419Z,12.28
2023-05-15T21:49:16.236Z,12.28
2023-05-15T21:51:42.039Z,12.18
2023-05-15T21:54:07.876Z,12.24
2023-05-15T21:56:33.750Z,12.27
2023-05-15T21:58:59.516Z,12.26
2023-05-15T22:01:25.502Z,12.18
2023-05-15T22:03:51.424Z,12.08
2023-05-15T22:06:17.481Z,12.03
2023-05-15T22:08:43.398Z,12.02
2023-05-15T22:11:09.218Z,11.95
2023-05-15T22:13:35.104Z,12.03
2023-05-15T22:16:02.161Z,11.91
2023-05-15T22:18:28.740Z,11.91
2023-05-15T22:20:54.793Z,11.86
2023-05-15T22:23:20.688Z,11.83
2023-05-15T22:25:48.225Z,11.77
2023-05-15T22:28:15.524Z,11.93
2023-05-15T22:30:41.336Z,11.87
2023-05-15T22:33:07.201Z,11.80
2023-05-15T22:35:33.100Z,11.66
2023-05-15T22:37:58.863Z,11.72
2023-05-15T22:40:25.459Z,11.73
2023-05-15T22:42:51.618Z,11.65
2023-05-15T22:45:18.582Z,11.78
2023-05-15T22:47:44.874Z,11.58
2023-05-15T22:50:10.872Z,11.56
2023-05-15T22:52:37.487Z,11.65
2023-05-15T22:55:03.621Z,11.58
2023-05-15T22:57:29.465Z,11.49
2023-05-15T22:59:55.318Z,11.66
2023-05-15T23:02:21.569Z,11.61
2023-05-15T23:12:28.575Z,11.46
2023-05-15T23:14:54.513Z,11.43
2023-05-15T23:17:20.267Z,11.41
2023-05-15T23:19:46.014Z,11.31
2023-05-15T23:22:11.935Z,11.43
2023-05-15T23:24:37.674Z,11.36
2023-05-15T23:27:04.877Z,11.35
2023-05-15T23:29:33.049Z,11.28
2023-05-15T23:31:59.078Z,11.24
2023-05-15T23:34:25.091Z,11.30
2023-05-15T23:36:50.867Z,11.20
2023-05-15T23:39:16.762Z,11.36
2023-05-15T23:41:42.589Z,11.25
2023-05-15T23:44:08.369Z,11.13
2023-05-15T23:46:37.185Z,11.14
2023-05-15T23:49:03.849Z,11.22
2023-05-15T23:51:30.341Z,11.18
2023-05-15T23:53:56.107Z,11.13
2023-05-15T23:56:23.073Z,11.08
2023-05-15T23:58:49.099Z,11.04
